Time;durP1;ratioP1;P1;durP2;ratioP2;P2;SDS_P1;SDS_P2;PMS_P1;PMS_P2;Temp;Humidity;BMP_temperature;BMP_pressure;BME280_temperature;BME280_humidity;BME280_pressure;Samples;Min_cycle;Max_cycle;Signal;HPM_P1;HPM_P2
2023/09/01 13:38:49;;;;;;;4.47;2.10;;;;;;;;;;5080959;22;20335;-70
2023/09/01 13:41:15;;;;;;;3.47;2.08;;;;;;;;;;5066178;28;20189;-70
2023/09/01 13:43:41;;;;;;;3.78;2.05;;;;;;;;;;5072172;28;20300;-70
2023/09/01 13:46:20;;;;;;;3.47;1.92;;;;;;;;;;5085542;28;20189;-69
2023/09/01 13:48:49;;;;;;;4.07;1.90;;;21.00;99.90;;;;;;5085817;28;20177;-70
2023/09/01 13:51:14;;;;;;;3.40;1.92;;;20.80;99.90;;;;;;5085443;28;20248;-70
2023/09/01 13:53:40;;;;;;;4.80;2.05;;;20.70;99.90;;;;;;5081286;28;20586;-71
2023/09/01 13:56:06;;;;;;;3.97;2.20;;;;;;;;;;5084472;28;20180;-72
2023/09/01 13:58:33;;;;;;;4.43;2.22;;;;;;;;;;5085990;28;20522;-70
2023/09/01 14:00:58;;;;;;;5.10;2.20;;;21.30;92.00;;;;;;5085193;28;20257;-72
2023/09/01 14:03:24;;;;;;;3.22;2.00;;;21.10;1.00;;;;;;5084864;28;20283;-71
2023/09/01 14:05:51;;;;;;;4.88;2.10;;;20.70;1.00;;;;;;5084687;28;20212;-70
2023/09/01 14:08:16;;;;;;;3.15;1.95;;;21.00;1.00;;;;;;5084119;28;20185;-72
2023/09/01 14:10:42;;;;;;;3.85;2.03;;;21.20;1.00;;;;;;5085433;28;20234;-71
2023/09/01 14:13:08;;;;;;;4.43;2.35;;;21.20;1.00;;;;;;5084548;28;20188;-71
2023/09/01 14:15:33;;;;;;;4.20;2.20;;;21.00;1.00;;;;;;5085079;28;20181;-72
2023/09/01 14:17:59;;;;;;;4.82;2.20;;;20.80;1.00;;;;;;5084920;28;21031;-71
2023/09/01 14:20:26;;;;;;;3.45;2.28;;;20.70;1.00;;;;;;5085407;28;20288;-71
2023/09/01 14:22:52;;;;;;;4.93;2.50;;;20.90;1.00;;;;;;5084846;28;20176;-71
2023/09/01 14:25:17;;;;;;;5.35;1.95;;;20.80;1.00;;;;;;5083725;28;20612;-70
2023/09/01 14:27:43;;;;;;;2.88;1.73;;;20.70;1.00;;;;;;5084923;28;20253;-70
2023/09/01 14:30:09;;;;;;;3.90;1.88;;;20.80;1.00;;;;;;5085550;28;20531;-72
2023/09/01 14:32:35;;;;;;;3.33;2.03;;;20.50;1.00;;;;;;5085836;28;20281;-71
2023/09/01 14:35:00;;;;;;;3.75;2.00;;;20.40;1.00;;;;;;5085527;28;20311;-70
2023/09/01 14:37:26;;;;;;;3.95;1.98;;;20.60;1.00;;;;;;5086329;28;20644;-70
2023/09/01 14:39:51;;;;;;;3.47;2.05;;;20.60;1.00;;;;;;5086187;28;20247;-71
2023/09/01 14:42:17;;;;;;;5.03;2.25;;;20.50;1.00;;;;;;5086439;28;20168;-70
2023/09/01 14:44:43;;;;;;;2.65;1.88;;;20.40;1.00;;;;;;5085833;28;20200;-70
2023/09/01 14:47:08;;;;;;;4.00;2.05;;;20.30;1.00;;;;;;5085914;28;20202;-71
2023/09/01 14:49:34;;;;;;;4.13;2.50;;;20.50;1.00;;;;;;5086253;28;20208;-72
2023/09/01 14:52:00;;;;;;;3.83;2.20;;;20.50;1.00;;;;;;5085705;28;20267;-70
2023/09/01 14:54:25;;;;;;;5.30;2.50;;;20.50;1.00;;;;;;5086020;28;20236;-70
2023/09/01 14:56:51;;;;;;;6.10;2.40;;;20.30;1.00;;;;;;5085256;28;20291;-70
2023/09/01 14:59:18;;;;;;;5.03;2.00;;;19.90;1.00;;;;;;5085499;28;20209;-71
2023/09/01 15:01:44;;;;;;;3.83;2.20;;;19.80;1.00;;;;;;5085805;28;20177;-70
2023/09/01 15:04:09;;;;;;;4.38;2.10;;;19.70;1.00;;;;;;5083278;28;20218;-71
2023/09/01 15:06:35;;;;;;;4.72;2.25;;;19.80;1.00;;;;;;5076959;28;20260;-70
2023/09/01 15:09:03;;;;;;;4.35;2.00;;;19.90;1.00;;;;;;5084829;28;20636;-69
2023/09/01 15:11:29;;;;;;;4.90;2.65;;;19.90;1.00;;;;;;5084803;28;20189;-70
2023/09/01 15:13:55;;;;;;;3.88;2.22;;;19.90;1.00;;;;;;5084487;28;20196;-70
2023/09/01 15:16:20;;;;;;;5.10;2.15;;;19.60;1.00;;;;;;5083738;28;20212;-70
2023/09/01 15:18:46;;;;;;;5.57;2.67;;;19.60;1.00;;;;;;5066013;28;21029;-71
2023/09/01 15:21:11;;;;;;;3.15;2.00;;;19.60;1.00;;;;;;5066149;28;20181;-70
2023/09/01 15:23:37;;;;;;;2.88;1.92;;;19.50;1.00;;;;;;5084380;28;20212;-71
2023/09/01 15:26:04;;;;;;;4.80;2.05;;;19.50;1.00;;;;;;5084088;28;20184;-70
2023/09/01 15:28:30;;;;;;;3.85;2.13;;;19.60;1.00;;;;;;5083582;28;20184;-69
2023/09/01 15:30:55;;;;;;;4.13;2.00;;;19.60;1.00;;;;;;5084391;28;20193;-70
2023/09/01 15:33:21;;;;;;;3.47;2.22;;;19.60;1.00;;;;;;5084331;28;20255;-69
2023/09/01 15:35:55;;;;;;;2.85;2.15;;;19.60;1.00;;;;;;5083607;28;20181;-71
2023/09/01 15:38:20;;;;;;;4.78;2.38;;;19.40;1.00;;;;;;5083581;28;20204;-69
2023/09/01 15:40:46;;;;;;;5.28;2.35;;;19.40;1.00;;;;;;5083924;28;20679;-73
2023/09/01 15:43:11;;;;;;;5.50;2.75;;;19.30;1.00;;;;;;5083521;28;20181;-71
2023/09/01 15:45:45;;;;;;;5.32;2.70;;;19.20;1.00;;;;;;5065234;28;21122;-72
2023/09/01 15:48:12;;;;;;;4.50;2.50;;;19.10;1.00;;;;;;5082774;28;20192;-72
2023/09/01 15:50:37;;;;;;;3.53;2.20;;;19.00;2.50;;;;;;5084331;28;20302;-73
2023/09/01 15:53:03;;;;;;;4.63;2.13;;;18.90;15.30;;;;;;5083288;28;20617;-71
2023/09/01 15:55:31;;;;;;;6.63;2.50;;;18.90;27.00;;;;;;5064790;28;20195;-70
2023/09/01 15:57:57;;;;;;;3.55;2.10;;;18.80;50.80;;;;;;5083497;28;20279;-69
2023/09/01 16:00:23;;;;;;;2.40;1.58;;;18.60;93.00;;;;;;5082698;28;20212;-71
2023/09/01 16:02:48;;;;;;;2.70;1.38;;;18.60;99.90;;;;;;5082366;28;20189;-70
2023/09/01 16:05:14;;;;;;;3.20;1.85;;;18.40;99.90;;;;;;5082947;28;20200;-69
2023/09/01 16:07:40;;;;;;;3.08;1.25;;;18.30;99.90;;;;;;5083615;28;20264;-71
2023/09/01 16:10:06;;;;;;;1.20;1.10;;;18.10;99.90;;;;;;5084244;28;20651;-71
2023/09/01 16:12:32;;;;;;;1.50;1.00;;;18.00;1.00;;;;;;5083069;28;20547;-70
2023/09/01 16:14:58;;;;;;;1.48;1.33;;;18.00;1.00;;;;;;5081845;28;20211;-70
2023/09/01 16:17:23;;;;;;;3.78;1.20;;;18.00;1.00;;;;;;5083288;28;20181;-70
2023/09/01 16:19:49;;;;;;;1.33;0.80;;;18.00;1.00;;;;;;5084380;28;20280;-70
2023/09/01 16:22:17;;;;;;;1.98;0.80;;;17.80;1.00;;;;;;5083222;28;20193;-71
2023/09/01 16:24:42;;;;;;;2.40;0.80;;;17.80;99.90;;;;;;5083272;28;20201;-70
2023/09/01 16:27:08;;;;;;;1.67;1.10;;;17.70;1.00;;;;;;5083575;28;20177;-72
2023/09/01 16:29:34;;;;;;;1.70;1.02;;;17.60;1.00;;;;;;5083577;28;20181;-70
2023/09/01 16:32:00;;;;;;;0.88;0.80;;;17.70;1.00;;;;;;5088803;28;20567;-72
2023/09/01 16:34:26;;;;;;;1.75;0.80;;;17.70;1.00;;;;;;5089884;28;20253;-71
2023/09/01 16:36:52;;;;;;;1.55;0.77;;;17.70;1.00;;;;;;5089639;28;20192;-70
2023/09/01 16:39:17;;;;;;;0.70;0.63;;;17.70;1.00;;;;;;5090100;28;20216;-70
2023/09/01 16:41:43;;;;;;;1.65;0.75;;;17.80;1.00;;;;;;5090296;28;20180;-70
2023/09/01 16:44:10;;;;;;;1.63;0.90;;;17.60;1.00;;;;;;5089704;28;20201;-69
2023/09/01 16:46:36;;;;;;;0.95;0.88;;;17.60;1.00;;;;;;5089672;28;20173;-70
2023/09/01 16:49:04;;;;;;;1.75;0.80;;;17.60;33.80;;;;;;5090616;28;20191;-71
2023/09/01 16:51:30;;;;;;;1.80;0.90;;;17.60;99.90;;;;;;5090345;28;20181;-70
2023/09/01 16:53:56;;;;;;;0.73;0.70;;;17.60;99.90;;;;;;5089552;28;20215;-71
2023/09/01 16:56:21;;;;;;;1.95;0.80;;;17.60;5.30;;;;;;5089329;28;20211;-72
2023/09/01 16:58:47;;;;;;;1.30;0.90;;;17.60;99.90;;;;;;5089966;28;20232;-70
2023/09/01 17:01:12;;;;;;;0.73;0.70;;;17.50;99.90;;;;;;5090501;28;20177;-70
2023/09/01 17:03:38;;;;;;;1.02;0.93;;;17.50;1.00;;;;;;5089770;28;20201;-71
2023/09/01 17:06:04;;;;;;;1.15;0.70;;;17.40;1.00;;;;;;5089070;28;20220;-71
2023/09/01 17:08:29;;;;;;;1.65;0.90;;;17.40;1.00;;;;;;5086220;28;20192;-70
2023/09/01 17:10:55;;;;;;;0.88;0.80;;;17.40;1.00;;;;;;5090307;28;20184;-70
2023/09/01 17:13:21;;;;;;;1.58;0.90;;;17.40;99.90;;;;;;5089989;28;20280;-71
2023/09/01 17:15:46;;;;;;;1.40;0.90;;;17.30;1.00;;;;;;5089561;28;20188;-70
2023/09/01 17:18:12;;;;;;;0.88;0.80;;;17.20;99.90;;;;;;5089943;28;20205;-71
2023/09/01 17:20:57;;;;;;;1.25;1.00;;;17.30;99.90;;;;;;5090018;28;20212;-71
2023/09/01 17:23:27;;;;;;;1.35;0.98;;;17.10;99.90;;;;;;5090214;28;20203;-70
2023/09/01 17:25:53;;;;;;;1.30;0.95;;;17.10;1.00;;;;;;5089453;28;20181;-71
2023/09/01 17:28:19;;;;;;;1.65;1.00;;;17.10;99.90;;;;;;5089777;28;20228;-71
2023/09/01 17:30:45;;;;;;;1.80;0.85;;;17.00;81.20;;;;;;5086231;28;20644;-71
2023/09/01 17:33:11;;;;;;;0.85;0.80;;;17.00;1.00;;;;;;5089081;28;20194;-71
2023/09/01 17:35:38;;;;;;;0.80;0.80;;;17.00;1.00;;;;;;5089477;28;20192;-71
2023/09/01 17:38:04;;;;;;;2.50;0.82;;;17.10;99.90;;;;;;5090002;28;20271;-71
2023/09/01 17:40:29;;;;;;;0.98;0.80;;;17.00;99.90;;;;;;5089827;28;20700;-72
2023/09/01 17:42:55;;;;;;;1.35;0.77;;;17.00;99.90;;;;;;5086761;28;20177;-72
2023/09/01 17:45:21;;;;;;;1.60;0.80;;;16.90;99.90;;;;;;5086398;28;20228;-71
2023/09/01 17:47:47;;;;;;;1.60;0.70;;;17.00;99.90;;;;;;5068853;28;20300;-72
2023/09/01 17:50:12;;;;;;;1.00;0.88;;;17.00;99.90;;;;;;5086374;28;20192;-72
2023/09/01 17:52:39;;;;;;;2.15;1.15;;;17.00;99.90;;;;;;5086851;28;20211;-71
2023/09/01 17:55:05;;;;;;;2.10;1.90;;;16.90;1.00;;;;;;5085492;28;20733;-71
2023/09/01 17:57:32;;;;;;;2.70;1.10;;;16.90;7.50;;;;;;5086486;28;20238;-71
2023/09/01 17:59:58;;;;;;;1.02;0.90;;;16.90;99.90;;;;;;5086391;28;20277;-72
2023/09/01 18:02:35;;;;;;;1.70;1.02;;;16.90;99.90;;;;;;5086191;28;20229;-73
2023/09/01 18:05:03;;;;;;;1.98;1.00;;;17.00;99.90;;;;;;5085572;28;20207;-72
2023/09/01 18:07:29;;;;;;;2.08;1.05;;;16.90;1.00;;;;;;5085934;28;20256;-72
2023/09/01 18:09:55;;;;;;;2.50;1.10;;;16.90;99.90;;;;;;5086498;28;20552;-72
2023/09/01 18:12:24;;;;;;;1.60;1.20;;;16.80;99.90;;;;;;5086107;28;20181;-73
2023/09/01 18:14:50;;;;;;;2.00;1.00;;;16.50;99.90;;;;;;5085146;28;20665;-73
2023/09/01 18:17:17;;;;;;;1.23;0.93;;;16.80;1.00;;;;;;5086327;28;20260;-72
2023/09/01 18:19:44;;;;;;;2.55;1.70;;;16.80;99.90;;;;;;5067695;28;20577;-71
2023/09/01 18:22:10;;;;;;;1.42;1.10;;;16.80;1.00;;;;;;5085654;28;20189;-72
2023/09/01 18:24:36;;;;;;;2.05;1.40;;;16.80;99.90;;;;;;5085734;28;20193;-72
2023/09/01 18:27:06;;;;;;;1.75;1.50;;;16.80;99.90;;;;;;5085264;28;20185;-72
2023/09/01 18:29:32;;;;;;;1.55;1.45;;;16.80;1.00;;;;;;5068223;28;20233;-72
2023/09/01 18:31:59;;;;;;;1.20;1.10;;;16.80;1.00;;;;;;5084709;28;20184;-71
2023/09/01 18:34:25;;;;;;;2.92;1.48;;;16.70;49.10;;;;;;5086093;28;20193;-73
2023/09/01 18:36:54;;;;;;;1.15;1.00;;;16.60;99.90;;;;;;5086515;28;20651;-72
2023/09/01 18:39:20;;;;;;;1.88;1.25;;;16.50;1.00;;;;;;5083119;28;20215;-74
2023/09/01 18:41:46;;;;;;;1.95;1.80;;;16.40;99.90;;;;;;5085799;28;20177;-72
2023/09/01 18:44:12;;;;;;;2.80;2.20;;;16.40;99.90;;;;;;5083558;28;20201;-72
2023/09/01 18:46:38;;;;;;;3.35;2.60;;;16.40;99.90;;;;;;5080957;28;20185;-73
2023/09/01 18:49:08;;;;;;;2.38;1.83;;;16.30;99.90;;;;;;5085366;28;20189;-72
2023/09/01 18:51:34;;;;;;;1.83;1.50;;;16.50;1.00;;;;;;5085642;28;20196;-72
2023/09/01 18:53:59;;;;;;;1.70;1.60;;;16.40;11.80;;;;;;5084252;28;20209;-72
2023/09/01 18:56:25;;;;;;;2.13;1.70;;;16.40;99.90;;;;;;5083979;28;20181;-73
2023/09/01 18:58:52;;;;;;;2.28;1.70;;;16.30;99.90;;;;;;5084250;28;20571;-72
2023/09/01 19:01:26;;;;;;;2.35;1.90;;;16.20;99.90;;;;;;5084785;28;20242;-73
2023/09/01 19:03:53;;;;;;;1.65;1.55;;;16.20;99.90;;;;;;5084441;28;20690;-72
2023/09/01 19:06:25;;;;;;;3.42;2.10;;;16.10;99.90;;;;;;5083920;28;20891;-72
2023/09/01 19:08:55;;;;;;;1.85;1.70;;;16.20;1.00;;;;;;5085150;28;20557;-72
2023/09/01 19:11:21;;;;;;;1.85;1.67;;;16.20;99.90;;;;;;5085456;28;20610;-73
2023/09/01 19:13:54;;;;;;;2.65;1.60;;;16.30;1.00;;;;;;5084575;28;20691;-72
2023/09/01 19:16:21;;;;;;;1.60;1.50;;;16.40;99.90;;;;;;5084314;28;20189;-72
2023/09/01 19:18:48;;;;;;;1.95;1.48;;;16.40;99.90;;;;;;5084671;28;20168;-72
2023/09/01 19:21:15;;;;;;;2.13;2.03;;;16.40;1.00;;;;;;5084102;28;21000;-71
2023/09/01 19:23:41;;;;;;;1.50;1.40;;;16.30;99.90;;;;;;5083652;28;20449;-72
2023/09/01 19:26:15;;;;;;;1.35;1.25;;;16.40;1.00;;;;;;5084030;28;20564;-72
2023/09/01 19:28:43;;;;;;;1.77;1.38;;;16.30;1.00;;;;;;5084639;28;20176;-71
2023/09/01 19:31:09;;;;;;;2.20;1.40;;;16.40;99.90;;;;;;5080409;28;20226;-72
2023/09/01 19:33:39;;;;;;;1.55;1.45;;;16.40;40.00;;;;;;5080350;28;20420;-72
2023/09/01 19:36:06;;;;;;;3.20;1.40;;;16.40;1.00;;;;;;5078533;28;20200;-73
2023/09/01 19:38:32;;;;;;;1.30;1.20;;;16.30;1.00;;;;;;5080933;28;20232;-72
2023/09/01 19:40:59;;;;;;;1.35;1.25;;;16.30;1.00;;;;;;5084424;28;20212;-72
2023/09/01 19:43:26;;;;;;;1.35;1.20;;;16.40;99.90;;;;;;5084262;28;20232;-72
2023/09/01 19:45:53;;;;;;;1.25;1.15;;;16.30;1.00;;;;;;5081040;28;20236;-72
2023/09/01 19:48:19;;;;;;;1.27;1.17;;;16.30;1.00;;;;;;5084009;28;20436;-72
2023/09/01 19:50:46;;;;;;;1.30;1.20;;;16.30;99.90;;;;;;5085024;28;20538;-72
2023/09/01 19:53:26;;;;;;;1.00;1.00;;;16.30;1.00;;;;;;5084071;28;20180;-72
2023/09/01 19:56:15;;;;;;;1.20;1.10;;;16.30;1.00;;;;;;5083536;28;20190;-73
2023/09/01 19:58:45;;;;;;;1.40;1.20;;;16.20;99.90;;;;;;5083655;28;20197;-72
2023/09/01 20:01:22;;;;;;;1.30;1.10;;;16.20;99.90;;;;;;5084276;28;20245;-72
2023/09/01 20:03:48;;;;;;;1.90;1.25;;;16.20;99.90;;;;;;5083117;28;20828;-72
2023/09/01 20:06:15;;;;;;;3.10;1.27;;;16.10;99.90;;;;;;5083029;28;20670;-71
2023/09/01 20:08:41;;;;;;;2.50;1.20;;;16.10;99.90;;;;;;5083941;28;20181;-72
2023/09/01 20:11:10;;;;;;;1.02;0.98;;;16.10;1.00;;;;;;5084066;28;20631;-71
2023/09/01 20:13:37;;;;;;;1.05;1.00;;;16.10;99.90;;;;;;5083206;28;20207;-72
2023/09/01 20:16:03;;;;;;;3.30;1.17;;;16.00;99.90;;;;;;5083424;28;20188;-72
2023/09/01 20:18:28;;;;;;;1.00;0.90;;;16.00;99.90;;;;;;5083651;28;20263;-71
2023/09/01 20:20:54;;;;;;;1.50;1.00;;;16.00;99.90;;;;;;5083781;28;20265;-71
2023/09/01 20:23:20;;;;;;;1.30;1.20;;;16.00;1.00;;;;;;5064957;28;20295;-72
2023/09/01 20:25:47;;;;;;;1.85;1.00;;;16.00;1.00;;;;;;5083312;28;20184;-73
2023/09/01 20:28:12;;;;;;;1.63;1.30;;;16.00;1.00;;;;;;5083804;28;20636;-72
2023/09/01 20:30:39;;;;;;;1.05;0.90;;;15.90;65.30;;;;;;5083894;28;20246;-72
2023/09/01 20:33:05;;;;;;;1.10;1.00;;;15.90;99.90;;;;;;5083075;28;20185;-72
2023/09/01 20:35:30;;;;;;;0.90;0.90;;;15.90;1.00;;;;;;5083251;28;20176;-72
2023/09/01 20:37:56;;;;;;;1.33;1.02;;;15.90;53.70;;;;;;5065474;28;20580;-72
2023/09/01 20:40:25;;;;;;;1.00;0.90;;;15.90;1.00;;;;;;5082715;28;20561;-71
2023/09/01 20:42:55;;;;;;;1.17;1.08;;;15.90;99.90;;;;;;5064707;28;20189;-72
2023/09/01 20:45:21;;;;;;;1.80;1.20;;;15.90;1.00;;;;;;5082606;28;20203;-71
2023/09/01 20:47:47;;;;;;;1.48;1.30;;;15.90;99.90;;;;;;5084091;28;21308;-72
2023/09/01 20:50:13;;;;;;;1.67;1.58;;;15.90;1.00;;;;;;5083680;28;20652;-71
2023/09/01 20:52:39;;;;;;;1.90;1.60;;;15.90;12.50;;;;;;5083590;28;20416;-72
2023/09/01 20:55:07;;;;;;;1.40;0.95;;;15.90;99.90;;;;;;5082878;28;20201;-70
2023/09/01 20:57:44;;;;;;;1.35;1.20;;;16.00;1.00;;;;;;5082985;28;20180;-72
2023/09/01 21:00:14;;;;;;;2.03;1.10;;;16.00;99.90;;;;;;5082969;28;20668;-73
2023/09/01 21:02:45;;;;;;;1.40;1.30;;;16.00;1.00;;;;;;5083331;28;20173;-73
2023/09/01 21:05:10;;;;;;;1.27;1.17;;;15.90;1.00;;;;;;5082194;28;20747;-72
2023/09/01 21:07:38;;;;;;;2.13;1.80;;;16.00;99.90;;;;;;5065636;28;20222;-72
2023/09/01 21:10:05;;;;;;;1.70;1.60;;;16.00;1.00;;;;;;5082820;28;20189;-74
2023/09/01 21:12:31;;;;;;;1.70;1.60;;;15.90;99.90;;;;;;5083247;28;20655;-73
2023/09/01 21:14:57;;;;;;;2.35;2.15;;;15.80;1.00;;;;;;5080318;28;20232;-73
2023/09/01 21:17:26;;;;;;;2.10;1.75;;;15.70;1.00;;;;;;5083751;28;20177;-72
2023/09/01 21:19:52;;;;;;;2.58;2.38;;;15.80;1.00;;;;;;5087142;28;20215;-73
2023/09/01 21:22:18;;;;;;;2.45;1.70;;;15.70;99.90;;;;;;5086699;28;20181;-73
2023/09/01 21:24:44;;;;;;;2.47;2.20;;;15.70;99.90;;;;;;5084458;28;20703;-73
2023/09/01 21:27:10;;;;;;;2.63;2.15;;;15.60;59.40;;;;;;5082410;28;20627;-73
2023/09/01 21:29:38;;;;;;;2.70;2.30;;;15.60;1.00;;;;;;5085620;28;20189;-72
2023/09/01 21:32:04;;;;;;;2.40;2.20;;;15.50;1.00;;;;;;5067296;28;20405;-72
2023/09/01 21:34:29;;;;;;;2.00;1.88;;;15.50;1.00;;;;;;5085887;28;20872;-72
2023/09/01 21:36:55;;;;;;;2.17;1.98;;;15.50;1.00;;;;;;5085076;28;20195;-72
2023/09/01 21:39:20;;;;;;;2.83;2.17;;;15.50;99.90;;;;;;5087344;28;20212;-72
2023/09/01 21:41:46;;;;;;;2.50;2.30;;;15.60;1.00;;;;;;5086940;28;20185;-73
2023/09/01 21:44:12;;;;;;;2.30;2.10;;;15.60;99.90;;;;;;5086140;28;20200;-72
2023/09/01 21:46:37;;;;;;;2.20;1.90;;;15.50;1.00;;;;;;5086011;28;20192;-72
2023/09/01 21:49:03;;;;;;;3.55;2.22;;;15.50;1.00;;;;;;5087272;28;20276;-72
2023/09/01 21:51:29;;;;;;;3.03;2.10;;;15.50;1.00;;;;;;5086858;28;20184;-72
2023/09/01 21:53:54;;;;;;;2.45;2.25;;;15.50;1.00;;;;;;5086657;28;20659;-72
2023/09/01 21:56:20;;;;;;;2.13;1.92;;;15.50;1.00;;;;;;5067965;28;20184;-72
2023/09/01 21:58:46;;;;;;;2.30;2.10;;;15.40;99.90;;;;;;5086238;28;21135;-72
2023/09/01 22:01:12;;;;;;;4.57;2.60;;;15.40;99.90;;;;;;5087961;28;20188;-72
2023/09/01 22:03:38;;;;;;;2.88;2.67;;;15.30;99.90;;;;;;5087935;28;20201;-72
2023/09/01 22:06:03;;;;;;;3.35;2.05;;;15.30;1.00;;;;;;5086614;28;20191;-73
2023/09/01 22:08:29;;;;;;;2.97;2.53;;;15.30;99.90;;;;;;5087453;28;20209;-73
2023/09/01 22:10:55;;;;;;;2.50;2.30;;;15.30;1.00;;;;;;5086978;28;20181;-73
2023/09/01 22:13:20;;;;;;;2.80;2.60;;;15.40;1.00;;;;;;5088133;28;20198;-72
2023/09/01 22:15:46;;;;;;;3.33;2.97;;;15.40;1.00;;;;;;5085773;28;20196;-72
2023/09/01 22:18:12;;;;;;;2.92;2.40;;;15.40;99.90;;;;;;5086037;28;20562;-73
2023/09/01 22:20:37;;;;;;;2.50;2.30;;;15.40;1.00;;;;;;5086468;28;20204;-71
2023/09/01 22:23:03;;;;;;;3.50;3.20;;;15.30;99.90;;;;;;5088259;28;20642;-73
2023/09/01 22:25:29;;;;;;;2.78;2.58;;;15.30;1.00;;;;;;5086352;28;20573;-70
2023/09/01 22:27:55;;;;;;;2.63;2.42;;;15.30;1.00;;;;;;5088184;28;20176;-74
2023/09/01 22:30:20;;;;;;;3.45;2.50;;;15.30;1.00;;;;;;5086263;28;20190;-73
2023/09/01 22:32:46;;;;;;;3.70;2.42;;;15.30;1.00;;;;;;5087705;28;20656;-72
2023/09/01 22:35:12;;;;;;;3.17;2.63;;;15.30;1.00;;;;;;5087076;28;21146;-71
2023/09/01 22:37:38;;;;;;;3.50;2.60;;;15.40;1.00;;;;;;5088831;28;20197;-71
2023/09/01 22:40:04;;;;;;;2.80;2.60;;;15.30;73.10;;;;;;5069165;28;20216;-73
2023/09/01 22:42:30;;;;;;;2.60;2.35;;;15.40;33.20;;;;;;5087030;28;20220;-70
2023/09/01 22:44:57;;;;;;;3.15;2.85;;;15.30;79.80;;;;;;5084649;28;20215;-73
2023/09/01 22:47:23;;;;;;;2.65;2.45;;;15.30;99.90;;;;;;5085234;28;20677;-73
2023/09/01 22:49:49;;;;;;;3.00;2.70;;;15.20;99.90;;;;;;5085428;28;20181;-73
2023/09/01 22:52:15;;;;;;;4.15;3.50;;;15.40;99.90;;;;;;5085323;28;20208;-73
2023/09/01 22:54:41;;;;;;;4.07;3.15;;;15.10;99.90;;;;;;5067250;28;20680;-72
2023/09/01 22:57:07;;;;;;;3.80;3.00;;;15.10;5.30;;;;;;5085913;28;20191;-72
2023/09/01 22:59:32;;;;;;;4.68;2.95;;;15.00;1.00;;;;;;5085516;28;20200;-72
2023/09/01 23:01:58;;;;;;;4.32;2.92;;;15.10;1.00;;;;;;5085457;28;20220;-72
2023/09/01 23:04:24;;;;;;;5.22;3.55;;;15.00;1.00;;;;;;5084483;28;20284;-72
2023/09/01 23:06:49;;;;;;;3.80;2.75;;;14.90;1.00;;;;;;5065856;28;20179;-73
2023/09/01 23:09:15;;;;;;;2.95;2.75;;;14.90;99.90;;;;;;5085347;28;20177;-73
2023/09/01 23:11:40;;;;;;;3.40;3.10;;;14.90;99.90;;;;;;5083718;28;20520;-73
2023/09/01 23:14:06;;;;;;;3.10;2.90;;;14.90;99.90;;;;;;5084780;28;20631;-72
2023/09/01 23:16:33;;;;;;;3.28;2.70;;;14.90;21.20;;;;;;5084563;28;20172;-72
2023/09/01 23:18:58;;;;;;;2.75;2.55;;;14.90;32.10;;;;;;5084609;28;20177;-73
2023/09/01 23:21:27;;;;;;;2.88;2.58;;;14.90;1.00;;;;;;5084945;28;20177;-72
2023/09/01 23:23:54;;;;;;;3.25;2.95;;;14.90;1.00;;;;;;5084092;28;20223;-73
2023/09/01 23:26:24;;;;;;;3.88;2.70;;;14.80;66.70;;;;;;5065822;28;20177;-73
2023/09/01 23:28:51;;;;;;;2.72;2.50;;;14.80;1.00;;;;;;5084759;28;20177;-72
2023/09/01 23:31:17;;;;;;;2.55;2.35;;;14.70;1.00;;;;;;5065914;28;20276;-73
2023/09/01 23:33:43;;;;;;;2.90;2.70;;;14.70;1.00;;;;;;5084049;28;20204;-73
2023/09/01 23:36:12;;;;;;;3.00;2.70;;;14.60;1.00;;;;;;5083558;28;20184;-72
2023/09/01 23:38:38;;;;;;;2.70;2.22;;;14.70;1.00;;;;;;5084464;28;20216;-73
2023/09/01 23:41:04;;;;;;;2.70;2.50;;;14.60;1.00;;;;;;5084129;28;20200;-72
2023/09/01 23:43:30;;;;;;;3.05;2.53;;;14.50;99.90;;;;;;5084576;28;20200;-72
2023/09/01 23:45:55;;;;;;;2.33;2.15;;;14.50;1.00;;;;;;5083529;28;20181;-72
2023/09/01 23:48:21;;;;;;;3.38;2.65;;;15.00;1.00;;;;;;5083940;28;20181;-72
2023/09/01 23:50:47;;;;;;;2.90;2.70;;;14.30;1.00;;;;;;5084394;28;20185;-73
2023/09/01 23:53:13;;;;;;;2.97;2.78;;;14.30;1.00;;;;;;5084291;28;20186;-72
2023/09/01 23:55:39;;;;;;;3.45;2.40;;;14.10;1.00;;;;;;5083575;28;20223;-73
2023/09/01 23:58:04;;;;;;;3.25;2.83;;;14.00;99.90;;;;;;5084182;28;20624;-72
